ADDS METAR Data INFO
IDs: Format: Raw Decoded Include TAF

Data at: 1407 UTC 24 Feb 2018

KC75 241355Z AUTO 08008G14KT 4SM -DZ OVC047 01/00 A3011 RMK AO2 T00080002
KC75 241335Z AUTO 08006KT 2 1/2SM DZ SCT016 SCT033 OVC049 01/00 A3012 RMK AO2 T00050000
KC75 241315Z AUTO 06006KT 2 1/2SM RA OVC016 00/00 A3013 RMK AO2 T00030000
KC75 241250Z AUTO 07004KT 5SM DZ SCT012 OVC018 00/00 A3014 RMK AO2 T00031002
KC75 241235Z AUTO 06007KT 5SM RA OVC018 00/00 A3013 RMK AO2 T00031005
KC75 241215Z AUTO 06008KT 7SM -DZ OVC016 00/M01 A3013 RMK AO2 T00021006
KC75 241155Z AUTO 05008KT 7SM -DZ OVC016 00/M01 A3013 RMK AO2 T00021007 10003 21001
KC75 241135Z AUTO 07006KT 7SM -RA SCT016 OVC060 00/M01 A3013 RMK AO2 T00031010
KC75 241115Z AUTO 06008KT 10SM OVC060 00/M01 A3013 RMK AO2 T00021012
KC75 241055Z AUTO 05007KT 10SM OVC060 00/M01 A3013 RMK AO2 T00021013
KC75 241035Z AUTO 04008KT 10SM BKN060 OVC075 00/M01 A3013 RMK AO2 T00011015
KC75 241015Z AUTO 05008KT 10SM OVC080 00/M01 A3015 RMK AO2 T00011015
KC75 240955Z AUTO 06007KT 10SM OVC080 00/M01 A3016 RMK AO2 T00001015
KC75 240935Z AUTO 06006KT 10SM OVC090 00/M02 A3018 RMK AO2 T00001016
KC75 240915Z AUTO 06004KT 10SM OVC090 00/M02 A3018 RMK AO2 T00001016
KC75 240855Z AUTO 04005KT 10SM OVC100 00/M02 A3018 RMK AO2 T00001016
KC75 240835Z AUTO 03004KT 10SM SCT100 00/M01 A3018 RMK AO2 T00001015
KC75 240810Z AUTO 03003KT 7SM CLR 00/M01 A3020 RMK AO2 T10011013
KC75 240755Z AUTO 06003KT 7SM CLR 00/M01 A3022 RMK AO2 T00001014
KC75 240735Z AUTO 05003KT 7SM CLR 00/M01 A3024 RMK AO2 T00001014
KC75 240715Z AUTO 00000KT 7SM CLR 00/M01 A3024 RMK AO2 T00001015
KC75 240655Z AUTO 00000KT 10SM CLR 00/M01 A3023 RMK AO2 T00011011
KC75 240635Z AUTO 02003KT 10SM CLR 00/M01 A3023 RMK AO2 T00011011
KC75 240615Z AUTO 36005KT 7SM CLR 00/M01 A3023 RMK AO2 T00001011
KC75 240555Z AUTO 01006KT 10SM CLR 00/M01 A3022 RMK AO2 T00011010 10028 20001 400600001
KC75 240535Z AUTO 01005KT 10SM CLR 00/M01 A3024 RMK AO2 T00021010
KC75 240515Z AUTO 36004KT 10SM CLR 00/M01 A3025 RMK AO2 T00021010
KC75 240455Z AUTO 36004KT 10SM CLR 00/M01 A3027 RMK AO2 T00031010
KC75 240435Z AUTO 35004KT 10SM CLR 01/M01 A3027 RMK AO2 T00071008
KC75 240415Z AUTO 36003KT 10SM CLR 01/00 A3027 RMK AO2 T00101005
KC75 240355Z AUTO 35003KT 10SM SCT020 01/00 A3027 RMK AO2 T00121001
KC75 240335Z AUTO 33005KT 10SM BKN022 02/00 A3028 RMK AO2 T00150000
KC75 240315Z AUTO 33003KT 10SM OVC022 02/00 A3028 RMK AO2 T00190000
KC75 240255Z AUTO 00000KT 10SM OVC022 02/01 A3028 RMK AO2 T00170010
KC75 240235Z AUTO 00000KT 10SM OVC022 02/01 A3029 RMK AO2 T00160007
KC75 240215Z AUTO 00000KT 10SM OVC022 02/01 A3028 RMK AO2 T00190010
KC75 240155Z AUTO 00000KT 10SM OVC020 03/01 A3027 RMK AO2 T00250011
KC75 240135Z AUTO 00000KT 10SM OVC020 02/01 A3027 RMK AO2 T00200010
KC75 240115Z AUTO 00000KT 10SM OVC020 02/01 A3026 RMK AO2 T00210007
KC75 240055Z AUTO 00000KT 10SM OVC022 03/01 A3026 RMK AO2 T00250007
KC75 240035Z AUTO 00000KT 10SM OVC022 03/01 A3026 RMK AO2 T00280007
KC75 240015Z AUTO 25003KT 10SM OVC022 03/01 A3027 RMK AO2 T00270008
KC75 232355Z AUTO 00000KT 10SM OVC020 03/01 A3026 RMK AO2 T00280008 10035 20022
KC75 232335Z AUTO 24003KT 10SM OVC020 03/01 A3026 RMK AO2 T00310007
KC75 232315Z AUTO 25003KT 10SM OVC018 03/01 A3025 RMK AO2 T00320007
KC75 232255Z AUTO 28005KT 10SM OVC016 03/01 A3025 RMK AO2 T00320007
KC75 232235Z AUTO 28005KT 10SM OVC014 03/01 A3026 RMK AO2 T00320007
KC75 232215Z AUTO 28006KT 10SM OVC014 03/01 A3026 RMK AO2 T00320005
KC75 232155Z AUTO 28005KT 10SM OVC014 03/01 A3026 RMK AO2 T00320010
KC75 232135Z AUTO 27007KT 10SM OVC014 03/01 A3025 RMK AO2 T00330013
KC75 232115Z AUTO 29006KT 10SM OVC014 04/01 A3025 RMK AO2 T00350013
KC75 232055Z AUTO 26007KT 10SM OVC012 04/01 A3024 RMK AO2 T00350012
KC75 232035Z AUTO 28005KT 10SM OVC012 03/01 A3024 RMK AO2 T00320010
KC75 232015Z AUTO 26008KT 10SM OVC012 03/01 A3024 RMK AO2 T00280008
KC75 231955Z AUTO 27007KT 10SM OVC010 03/01 A3025 RMK AO2 T00260010
KC75 231935Z AUTO 26010KT 10SM OVC008 03/01 A3025 RMK AO2 T00250011
KC75 231915Z AUTO 27008KT 10SM OVC008 03/01 A3024 RMK AO2 T00250010
KC75 231855Z AUTO 28006KT 10SM OVC008 03/01 A3024 RMK AO2 T00250010
KC75 231835Z AUTO 28009KT 10SM OVC008 03/01 A3024 RMK AO2 T00250014
KC75 231815Z AUTO 27009KT 10SM OVC008 02/01 A3024 RMK AO2 T00220012
KC75 231755Z AUTO 27007KT 10SM OVC008 03/02 A3024 RMK AO2 T00250015 10060 20023
KC75 231735Z AUTO 28008G15KT 10SM OVC008 03/01 A3024 RMK AO2 T00250012
KC75 231715Z AUTO 27010G17KT 250V310 10SM OVC008 03/01 A3024 RMK AO2 T00250013
KC75 231655Z AUTO 27012G16KT 10SM OVC008 03/02 A3024 RMK AO2 T00270016
KC75 231635Z AUTO 27012G17KT 10SM OVC008 03/02 A3023 RMK AO2 T00260017
KC75 231615Z AUTO 27010G17KT 10SM OVC008 03/02 A3022 RMK AO2 T00270020
KC75 231555Z AUTO 27008G18KT 10SM OVC008 03/02 A3021 RMK AO2 T00280021
KC75 231535Z AUTO 28014KT 10SM OVC008 03/02 A3020 RMK AO2 T00310023
KC75 231515Z AUTO 29009G18KT 10SM OVC010 04/03 A3019 RMK AO2 T00350025
KC75 231450Z AUTO 28009G16KT 10SM OVC010 04/03 A3019 RMK AO2 T00400025
KC75 231435Z AUTO 27009G16KT 10SM OVC010 04/03 A3018 RMK AO2 T00420030
KC75 231415Z AUTO 26009G15KT 10SM OVC010 05/04 A3016 RMK AO2 T00460035
KC75 231355Z AUTO 25008KT 10SM OVC010 05/04 A3016 RMK AO2 T00500041
KC75 231335Z AUTO 26008G15KT 10SM OVC010 05/05 A3014 RMK AO2 T00540046
KC75 231315Z AUTO 25011KT 10SM OVC008 06/05 A3013 RMK AO2 T00570054
KC75 231255Z AUTO 25008KT 10SM OVC008 06/06 A3012 RMK AO2 T00600060
KC75 231235Z AUTO 24008KT 10SM OVC006 06/06 A3011 RMK AO2 T00600060
KC75 231215Z AUTO 23008KT 10SM OVC006 06/06 A3011 RMK AO2 T00580058
KC75 231155Z AUTO 22005KT 7SM BKN004 OVC008 06/06 A3011 RMK AO2 60020 70020 T00560056 10056 20050
KC75 231135Z AUTO 22003KT 5SM BR OVC004 06/06 A3011 RMK AO2 T00550055
KC75 231115Z AUTO 24004KT 5SM BR OVC006 06/06 A3011 RMK AO2 T00560056
KC75 231055Z AUTO 18006KT 4SM -DZ OVC006 06/06 A3011 RMK AO2 P0001 T00550055
KC75 231035Z AUTO 18005KT 4SM -DZ OVC006 06/06 A3011 RMK AO2 P0001 T00550055
KC75 231015Z AUTO 16005KT 5SM RA BKN004 OVC010 05/05 A3010 RMK AO2 P0001 T00530053
KC75 230955Z AUTO 15006KT 5SM -DZ SCT004 BKN010 OVC033 05/05 A3010 RMK AO2 P0006 T00520052
KC75 230935Z AUTO 15009KT 5SM -RA SCT006 BKN021 OVC038 05/05 A3011 RMK AO2 P0006 T00520052
KC75 230915Z AUTO 15008KT 4SM RA SCT022 OVC039 05/05 A3012 RMK AO2 P0003 T00520052
KC75 230855Z AUTO 13014KT 4SM RA SCT002 BKN018 OVC041 05/05 A3011 RMK AO2 P0012 60012 T00520052
KC75 230835Z AUTO 14007KT 3SM RA OVC002 05/05 A3013 RMK AO2 P0006 T00510051
KC75 230815Z AUTO 14006KT 1 3/4SM RA OVC002 05/05 A3014 RMK AO2 P0002 T00510051
KC75 230755Z AUTO 00000KT 1 1/2SM -DZ OVC002 05/05 A3014 RMK AO2 T00510051
KC75 230735Z AUTO 13005KT 1 1/2SM BR OVC002 05/05 A3015 RMK AO2 T00500050
KC75 230715Z AUTO 14007KT 1 3/4SM BR OVC004 05/05 A3017 RMK AO2 T00500050
KC75 230655Z AUTO 14008KT 2 1/2SM BR OVC004 05/05 A3018 RMK AO2 T00500050
KC75 230635Z AUTO 13008KT 3SM BR OVC004 05/05 A3018 RMK AO2 T00500050
KC75 230615Z AUTO 12007KT 2 1/2SM BR OVC004 05/05 A3019 RMK AO2 T00500050
KC75 230555Z AUTO 11005KT 3SM BR OVC004 05/05 A3021 RMK AO2 T00500050 10050 20045 400551023
KC75 230535Z AUTO 12005KT 4SM BR OVC004 05/05 A3021 RMK AO2 T00490049
KC75 230515Z AUTO 12005KT 5SM BR OVC004 05/05 A3024 RMK AO2 T00500050
KC75 230455Z AUTO 13007KT 7SM OVC006 05/05 A3025 RMK AO2 T00500050
KC75 230435Z AUTO 14007KT 7SM OVC006 05/05 A3026 RMK AO2 T00500050
KC75 230415Z AUTO 15006KT 7SM OVC006 05/05 A3027 RMK AO2 T00500050
KC75 230355Z AUTO 14007KT 2 1/2SM BR OVC006 05/05 A3027 RMK AO2 T00500050
KC75 230335Z AUTO 14006KT 7SM OVC006 05/05 A3027 RMK AO2 T00500050
KC75 230315Z AUTO 14007KT 7SM OVC004 05/05 A3029 RMK AO2 T00500050
KC75 230255Z AUTO 14006KT 5SM BR OVC004 05/05 A3029 RMK AO2 T00480048
KC75 230235Z AUTO 11005KT 4SM BR OVC004 05/05 A3030 RMK AO2 T00480048
KC75 230215Z AUTO 08005KT 3SM BR OVC004 05/05 A3031 RMK AO2 T00480048